الصفحة الرئيسية
METAR-TAF:

METAR-TAF

مطار :

نوميا, نيو كاليدونيا

دائرة عرض: 22-15-30S, خط طول: 166-28-22E, ارتفاع: 3 متر

METAR: مفقودة

زمن: 22:36 (11:36 UTC)

توقعات

تاريخ ووقت الإصدار 36 دقيقة قبل الساعة 11:00UTC
التوقعات صالحة من30 الساعة 12 UTC إلى 01 الساعة 12 UTC
ريح 2 عقدةمن اتجاهات متغيرة
الرؤية 10 كم أو أكثر
غيوم متفرقة على ارتفاع 1000 قدم
غيوم مفككة على ارتفاع 5000 قدم
أصبح
من 30 الساعة 23 UTC إلى 01 الساعة 01 UTC
ريح 12 عقدة من الجنوب/الجنوب الشرقي
نظرية الاحتمالات 30% :
مؤقت
من 01 الساعة 00 UTC إلى 01 الساعة 06 UTC
الرؤية: 4000 متر
غيوم مفككة على ارتفاع 1200 قدم
غيوم قليلة على ارتفاع 1500 قدم, مزنة ركامية.
غيوم متفرقة على ارتفاع 1800 قدم, مزن ركامية عمودية.
زخات من المطر
أصبح
من 01 الساعة 08 UTC إلى 01 الساعة 10 UTC
ريح 2 عقدةمن اتجاهات متغيرة

TAF: NWWM 301100Z 3012/0112 VRB02KT 9999 SCT010 BKN050 BECMG 3023/0101 15012KT PROB30 TEMPO 0100/0106 4000 SHRA BKN012 FEW015CB SCT018TCU BECMG 0108/0110 VRB02KT

أرصاد الطقس والتوقعات من أكثر من 4000 مطار (تقارير الطقس للمطار METAR والتنبؤ بالطقس بالمطارTAF).

المحطات المتاحة هي النقط الصفراء والحمراء على الخريطة.

حرك المؤشر فوق النقطة لمعرفة اسم المحطة.

ثم انقر لمعرفة أرصاد وتوقعات الطقس.

لتغيير الخارطة: اضغط على الأزرار الخضراء مع رمز الصليب الأسود للتكبير. على الزر الأخضر مع شرطة للتصغير، أو على الأسهم الخضراء للخرائط المجاورة.


METAR-TAF: